Time;durP1;ratioP1;P1;durP2;ratioP2;P2;SDS_P1;SDS_P2;PMS_P1;PMS_P2;Temp;Humidity;BMP_temperature;BMP_pressure;BME280_temperature;BME280_humidity;BME280_pressure;Samples;Min_cycle;Max_cycle;Signal;HPM_P1;HPM_P2
2021/05/09 00:01:19;;;;;;;1.33;0.90;;;;;;;9.35;63.00;100262.86;128434;1101;62635;-75
2021/05/09 00:03:46;;;;;;;1.13;0.67;;;;;;;9.39;62.53;100252.72;128465;1101;62741;-75
2021/05/09 00:06:14;;;;;;;2.17;1.03;;;;;;;9.43;62.63;100256.66;128385;1101;62229;-75
2021/05/09 00:08:41;;;;;;;2.80;0.93;;;;;;;9.48;61.92;100248.17;128445;1101;62045;-75
2021/05/09 00:11:08;;;;;;;2.30;0.80;;;;;;;9.54;62.33;100250.11;128413;1101;62059;-75
2021/05/09 00:13:36;;;;;;;1.40;1.00;;;;;;;9.57;62.36;100249.77;128438;1101;62378;-75
2021/05/09 00:16:03;;;;;;;2.37;1.07;;;;;;;9.61;61.80;100244.95;128422;1101;62039;-75
2021/05/09 00:18:29;;;;;;;1.40;0.80;;;;;;;9.65;61.72;100247.05;128421;1101;62442;-75
2021/05/09 00:20:56;;;;;;;3.03;1.47;;;;;;;9.71;61.17;100243.69;128391;1101;61815;-76
2021/05/09 00:23:23;;;;;;;3.60;0.80;;;;;;;9.75;61.15;100239.68;128422;1101;62982;-76
2021/05/09 00:25:50;;;;;;;1.80;0.83;;;;;;;9.80;60.63;100242.59;128409;1101;62547;-75
2021/05/09 00:28:17;;;;;;;1.20;0.70;;;;;;;9.88;59.69;100235.55;128356;1101;62415;-75
2021/05/09 00:30:44;;;;;;;2.20;1.20;;;;;;;9.98;59.57;100241.42;128372;1101;62889;-74
2021/05/09 00:33:11;;;;;;;1.50;0.80;;;;;;;10.08;59.24;100225.25;128386;1101;63824;-75
2021/05/09 00:35:37;;;;;;;2.23;0.80;;;;;;;10.17;59.01;100232.91;128349;1101;63309;-75
2021/05/09 00:38:04;;;;;;;1.70;1.03;;;;;;;10.24;59.32;100229.53;128423;1101;62200;-75
2021/05/09 00:40:30;;;;;;;2.67;1.00;;;;;;;10.30;58.59;100232.30;128386;1101;62272;-76
2021/05/09 00:42:57;;;;;;;2.23;1.00;;;;;;;10.37;57.53;100229.72;128401;1101;62871;-75
2021/05/09 00:45:23;;;;;;;1.57;0.83;;;;;;;10.42;57.81;100227.36;128367;1101;62111;-75
2021/05/09 00:47:51;;;;;;;1.43;0.83;;;;;;;10.46;58.08;100227.81;128431;1101;62187;-75
2021/05/09 00:50:19;;;;;;;2.00;1.17;;;;;;;10.48;57.61;100231.11;128099;1101;62541;-76
2021/05/09 00:52:47;;;;;;;2.30;1.30;;;;;;;10.51;58.17;100230.72;128416;1101;62713;-75
2021/05/09 00:55:16;;;;;;;2.20;1.00;;;;;;;10.54;57.46;100231.18;128119;1102;62092;-75
2021/05/09 00:57:47;;;;;;;2.97;0.90;;;;;;;10.57;57.85;100228.14;128433;1101;62119;-75
2021/05/09 01:00:14;;;;;;;2.83;1.30;;;;;;;10.60;57.96;100217.18;128299;1101;62292;-75
2021/05/09 01:02:43;;;;;;;2.33;1.00;;;;;;;10.65;57.09;100229.03;128410;1101;62033;-75
2021/05/09 01:05:13;;;;;;;1.60;1.00;;;;;;;10.67;57.15;100224.36;128401;1101;62197;-75
2021/05/09 01:07:39;;;;;;;2.00;0.90;;;;;;;10.70;57.61;100224.00;128373;1101;62260;-75
2021/05/09 01:10:09;;;;;;;2.10;1.00;;;;;;;10.72;57.03;100224.64;128326;1101;62104;-75
2021/05/09 01:12:35;;;;;;;3.33;1.07;;;;;;;10.76;56.62;100224.08;128369;1101;62295;-75
2021/05/09 01:15:05;;;;;;;3.40;1.10;;;;;;;10.80;57.19;100224.53;128330;1101;62207;-75
2021/05/09 01:17:32;;;;;;;1.30;0.83;;;;;;;10.81;57.18;100226.97;128378;1101;62939;-75
2021/05/09 01:20:00;;;;;;;1.60;1.00;;;;;;;10.83;56.78;100224.14;128393;1101;62280;-75
2021/05/09 01:22:27;;;;;;;2.90;1.03;;;;;;;10.86;56.68;100218.47;128386;1101;62945;-75
2021/05/09 01:24:54;;;;;;;3.00;0.87;;;;;;;10.87;56.40;100214.80;128306;1101;63153;-75
2021/05/09 01:27:21;;;;;;;2.00;1.00;;;;;;;10.89;56.66;100217.27;128399;1101;63625;-76
2021/05/09 01:29:49;;;;;;;1.90;1.30;;;;;;;10.90;56.11;100219.74;128395;1101;62712;-75
2021/05/09 01:32:15;;;;;;;1.53;0.97;;;;;;;10.88;56.93;100216.45;128389;1101;62119;-74
2021/05/09 01:34:42;;;;;;;2.47;1.00;;;;;;;10.89;55.76;100210.13;128367;1102;62175;-74
2021/05/09 01:37:08;;;;;;;1.20;0.60;;;;;;;10.90;56.32;100206.47;128410;1101;62746;-74
2021/05/09 01:39:35;;;;;;;1.17;0.77;;;;;;;10.92;55.73;100212.41;128366;1101;62253;-74
2021/05/09 01:42:02;;;;;;;2.37;0.90;;;;;;;10.94;56.27;100209.55;128374;1101;62209;-74
2021/05/09 01:44:29;;;;;;;1.57;1.03;;;;;;;10.96;55.74;100203.03;128109;1102;62492;-75
2021/05/09 01:46:55;;;;;;;3.20;1.20;;;;;;;10.97;56.37;100199.39;128397;1101;62440;-75
2021/05/09 01:49:22;;;;;;;3.43;1.33;;;;;;;10.95;56.35;100196.09;128420;1101;62217;-76
2021/05/09 01:51:49;;;;;;;1.43;0.83;;;;;;;10.95;55.65;100198.75;128392;1101;62402;-75
2021/05/09 01:54:17;;;;;;;1.73;1.07;;;;;;;10.94;56.07;100199.75;128308;1101;62195;-75
2021/05/09 01:56:43;;;;;;;1.80;1.13;;;;;;;10.94;55.84;100197.09;128405;1101;62284;-75
2021/05/09 01:59:11;;;;;;;2.00;1.00;;;;;;;10.94;55.65;100201.59;128412;1101;62248;-75
2021/05/09 02:01:40;;;;;;;3.47;1.10;;;;;;;10.93;56.33;100198.12;128350;1101;62146;-75
2021/05/09 02:04:07;;;;;;;3.10;1.30;;;;;;;10.97;55.44;100198.58;128393;1101;62269;-75
2021/05/09 02:06:33;;;;;;;2.30;1.33;;;;;;;10.98;55.73;100201.02;128389;1101;62968;-74
2021/05/09 02:09:00;;;;;;;1.90;1.10;;;;;;;11.00;55.50;100193.69;128374;1101;62026;-74
2021/05/09 02:11:26;;;;;;;4.73;1.57;;;;;;;11.01;56.21;100199.84;128322;1101;62138;-75
2021/05/09 02:13:53;;;;;;;2.73;0.97;;;;;;;11.02;56.13;100196.97;128361;1101;63083;-74
2021/05/09 02:16:19;;;;;;;2.60;1.23;;;;;;;11.01;55.48;100198.00;128314;1101;62298;-74
2021/05/09 02:18:46;;;;;;;1.90;1.10;;;;;;;11.00;55.40;100193.69;128399;1101;62094;-74
2021/05/09 02:21:13;;;;;;;1.67;0.93;;;;;;;10.98;56.14;100185.09;128380;1101;62422;-74
2021/05/09 02:23:39;;;;;;;2.07;1.27;;;;;;;10.98;56.08;100184.28;128432;1101;62138;-75
2021/05/09 02:26:06;;;;;;;3.23;1.10;;;;;;;10.97;55.66;100193.27;128357;1101;63021;-74
2021/05/09 02:28:33;;;;;;;1.40;0.60;;;;;;;10.94;55.97;100183.83;128443;1101;62929;-74
2021/05/09 02:30:59;;;;;;;1.87;1.03;;;;;;;10.94;56.50;100190.97;128310;1101;62595;-74
2021/05/09 02:33:26;;;;;;;2.70;0.87;;;;;;;10.91;56.36;100186.88;128398;1101;62189;-75
2021/05/09 02:35:52;;;;;;;3.03;1.30;;;;;;;10.90;56.18;100179.94;128216;1101;62489;-73
2021/05/09 02:38:19;;;;;;;2.03;1.10;;;;;;;10.89;56.51;100180.12;128322;1101;62268;-74
2021/05/09 02:40:45;;;;;;;1.73;0.80;;;;;;;10.89;56.42;100186.23;128354;1101;62531;-75
2021/05/09 02:43:16;;;;;;;2.00;0.83;;;;;;;10.88;56.93;100178.45;128371;1101;62963;-75
2021/05/09 02:45:44;;;;;;;1.60;0.97;;;;;;;10.87;56.57;100182.14;128318;1101;64224;-74
2021/05/09 02:48:11;;;;;;;0.93;0.70;;;;;;;10.84;56.58;100188.66;128106;1101;62444;-75
2021/05/09 02:50:39;;;;;;;2.47;1.10;;;;;;;10.81;57.15;100189.02;128152;1101;62956;-73
2021/05/09 02:53:05;;;;;;;2.20;1.00;;;;;;;10.78;56.86;100184.09;128215;1101;63068;-74
2021/05/09 02:55:32;;;;;;;1.70;0.90;;;;;;;10.75;56.91;100181.80;128046;1101;64144;-74
2021/05/09 02:57:59;;;;;;;1.70;0.70;;;;;;;10.70;57.02;100186.87;128288;1101;62331;-75
2021/05/09 03:00:25;;;;;;;1.70;1.03;;;;;;;10.64;57.73;100187.61;128402;1101;62235;-75
2021/05/09 03:03:06;;;;;;;1.43;0.97;;;;;;;10.55;57.79;100182.42;128403;1101;62155;-74
2021/05/09 03:05:35;;;;;;;2.77;1.10;;;;;;;10.47;58.12;100185.18;128113;1101;62177;-74
2021/05/09 03:08:02;;;;;;;2.10;1.00;;;;;;;10.37;58.41;100182.00;128442;1101;62472;-75
2021/05/09 03:10:28;;;;;;;3.07;1.37;;;;;;;10.21;58.95;100178.52;128383;1101;62142;-74
2021/05/09 03:12:55;;;;;;;3.30;1.50;;;;;;;9.99;59.96;100175.00;128381;1101;62534;-74
2021/05/09 03:15:21;;;;;;;2.53;1.23;;;;;;;9.77;60.37;100171.42;128424;1101;62553;-74
2021/05/09 03:17:48;;;;;;;2.10;1.27;;;;;;;9.57;60.33;100175.63;128427;1101;63388;-74
2021/05/09 03:20:15;;;;;;;2.43;1.40;;;;;;;9.36;60.99;100174.48;128419;1101;62426;-74
2021/05/09 03:22:41;;;;;;;2.00;1.57;;;;;;;9.17;61.81;100180.29;128356;1101;62292;-74
2021/05/09 03:25:08;;;;;;;2.17;1.40;;;;;;;9.02;62.38;100182.08;128344;1101;62262;-75
2021/05/09 03:27:35;;;;;;;3.00;1.40;;;;;;;8.88;62.78;100181.85;128281;1101;62073;-75
2021/05/09 03:30:02;;;;;;;3.93;1.57;;;;;;;8.80;63.29;100179.27;128385;1101;61989;-76
2021/05/09 03:32:29;;;;;;;1.77;1.10;;;;;;;8.84;63.58;100180.55;128366;1101;62839;-75
2021/05/09 03:34:57;;;;;;;1.40;0.80;;;;;;;8.94;64.05;100177.66;128415;1101;62179;-76
2021/05/09 03:37:23;;;;;;;1.30;0.80;;;;;;;9.02;64.01;100171.49;128412;1101;62645;-76
2021/05/09 03:39:50;;;;;;;1.87;1.07;;;;;;;9.09;63.42;100169.77;128384;1101;62339;-76
2021/05/09 03:42:16;;;;;;;1.50;1.00;;;;;;;9.17;63.54;100156.48;128405;1101;62047;-76
2021/05/09 03:44:43;;;;;;;1.63;1.00;;;;;;;9.19;63.15;100149.18;128378;1101;63916;-77
2021/05/09 03:47:09;;;;;;;2.20;1.20;;;;;;;9.20;62.75;100158.75;128404;1101;63068;-76
2021/05/09 03:49:36;;;;;;;1.20;0.77;;;;;;;9.27;62.74;100156.23;128417;1101;62281;-76
2021/05/09 03:52:03;;;;;;;0.90;0.53;;;;;;;9.30;63.40;100159.32;128398;1101;62721;-76
2021/05/09 03:54:29;;;;;;;1.43;0.87;;;;;;;9.38;63.47;100161.90;128431;1101;62136;-76
2021/05/09 03:56:56;;;;;;;1.90;1.00;;;;;;;9.43;63.48;100148.11;128333;1101;62649;-76
2021/05/09 03:59:22;;;;;;;2.70;1.00;;;;;;;9.50;62.78;100148.21;128401;1101;61989;-76
2021/05/09 04:01:49;;;;;;;1.90;1.10;;;;;;;9.54;62.87;100154.79;128400;1101;62445;-77
2021/05/09 04:04:15;;;;;;;1.20;0.70;;;;;;;9.56;63.15;100153.63;128436;1101;62014;-76
2021/05/09 04:06:42;;;;;;;1.97;1.27;;;;;;;9.59;63.25;100141.84;128378;1101;62085;-76
2021/05/09 04:09:09;;;;;;;1.63;0.80;;;;;;;9.61;62.81;100139.84;128437;1102;62884;-76
2021/05/09 04:11:35;;;;;;;4.23;1.20;;;;;;;9.63;63.63;100142.28;128380;1101;62639;-76
2021/05/09 04:14:02;;;;;;;1.60;0.70;;;;;;;9.63;63.51;100140.48;128478;1101;62316;-76
2021/05/09 04:16:28;;;;;;;2.17;1.07;;;;;;;9.66;63.90;100145.40;128415;1101;62152;-76
2021/05/09 04:18:55;;;;;;;1.90;1.07;;;;;;;9.72;63.26;100141.20;128474;1101;62242;-76
2021/05/09 04:21:21;;;;;;;3.10;1.40;;;;;;;9.76;63.61;100143.30;128416;1101;62142;-76
2021/05/09 04:23:48;;;;;;;2.47;1.00;;;;;;;9.83;63.71;100147.88;128188;1101;62129;-76
2021/05/09 04:26:15;;;;;;;2.30;0.97;;;;;;;9.90;63.05;100148.77;128383;1101;62401;-76
2021/05/09 04:28:41;;;;;;;2.63;1.13;;;;;;;9.97;63.54;100147.05;128410;1101;62064;-76
2021/05/09 04:31:08;;;;;;;3.30;1.27;;;;;;;10.00;63.17;100144.83;128427;1101;62611;-77
2021/05/09 04:33:34;;;;;;;3.13;1.50;;;;;;;10.03;63.29;100143.66;128403;1101;62650;-77
2021/05/09 04:36:01;;;;;;;1.70;1.10;;;;;;;10.05;63.38;100140.80;128380;1101;63030;-77
2021/05/09 04:38:27;;;;;;;1.60;0.90;;;;;;;10.07;63.10;100144.09;128417;1101;62376;-77
2021/05/09 04:40:54;;;;;;;1.57;1.03;;;;;;;10.08;62.90;100141.27;128392;1101;62224;-76
2021/05/09 04:43:21;;;;;;;2.60;1.20;;;;;;;10.11;62.34;100146.19;128452;1101;62337;-76
2021/05/09 04:45:51;;;;;;;2.03;0.80;;;;;;;10.14;62.38;100143.18;128400;1101;62868;-76
2021/05/09 04:48:18;;;;;;;1.70;0.83;;;;;;;10.17;62.19;100142.80;128121;1102;62305;-77
2021/05/09 04:50:45;;;;;;;2.70;1.00;;;;;;;10.23;62.39;100143.08;128468;1101;62453;-78
2021/05/09 04:53:27;;;;;;;2.13;1.03;;;;;;;10.25;62.36;100151.66;128375;1101;62349;-77
2021/05/09 04:55:57;;;;;;;1.70;0.87;;;;;;;10.28;62.24;100140.67;128373;1101;62236;-77
2021/05/09 04:58:25;;;;;;;1.20;0.87;;;;;;;10.32;62.06;100137.48;128402;1101;62191;-77
2021/05/09 05:01:01;;;;;;;3.20;1.67;;;;;;;10.40;62.85;100139.22;128388;1101;62353;-78
2021/05/09 05:03:31;;;;;;;1.95;1.10;;;;;;;10.50;62.53;100139.74;128387;1101;62261;-77
2021/05/09 05:05:58;;;;;;;1.17;0.77;;;;;;;10.60;62.83;100142.91;128383;1101;61966;-78
2021/05/09 05:08:26;;;;;;;1.70;0.93;;;;;;;10.72;62.48;100137.09;128157;1101;62082;-77
2021/05/09 05:10:53;;;;;;;2.00;1.10;;;;;;;10.85;62.84;100142.52;128446;1101;62135;-76
2021/05/09 05:13:20;;;;;;;1.23;0.80;;;;;;;10.98;62.14;100134.66;128375;1101;62617;-76
2021/05/09 05:15:49;;;;;;;1.80;1.03;;;;;;;11.15;62.31;100137.05;128435;1101;62612;-76
2021/05/09 05:18:16;;;;;;;2.43;0.90;;;;;;;11.29;61.82;100135.34;128414;1101;62883;-76
2021/05/09 05:20:43;;;;;;;1.97;1.00;;;;;;;11.45;61.35;100134.20;128438;1101;62132;-77
2021/05/09 05:23:12;;;;;;;1.47;0.97;;;;;;;11.60;60.69;100129.59;128408;1101;62448;-77
2021/05/09 05:25:39;;;;;;;2.30;0.90;;;;;;;11.75;60.22;100127.66;128140;1102;62456;-77
2021/05/09 05:28:06;;;;;;;2.03;1.00;;;;;;;11.92;60.19;100132.66;128131;1101;62648;-77
2021/05/09 05:30:34;;;;;;;1.50;1.00;;;;;;;12.03;59.81;100134.77;128258;1101;62165;-76
2021/05/09 05:33:07;;;;;;;1.57;0.97;;;;;;;12.15;59.95;100130.50;128425;1101;62094;-77
2021/05/09 05:35:34;;;;;;;1.10;0.70;;;;;;;12.27;59.72;100129.95;128305;1101;62643;-75
2021/05/09 05:38:01;;;;;;;1.47;0.83;;;;;;;12.39;59.25;100139.80;128379;1101;62184;-74
2021/05/09 05:40:28;;;;;;;1.30;0.90;;;;;;;12.53;58.63;100134.50;128378;1101;62694;-76
2021/05/09 05:42:54;;;;;;;2.73;1.17;;;;;;;12.65;58.86;100144.35;128076;1102;64002;-75
2021/05/09 05:45:21;;;;;;;1.30;0.90;;;;;;;12.79;58.48;100144.36;128418;1101;62098;-74
2021/05/09 05:47:49;;;;;;;1.77;0.90;;;;;;;12.92;58.17;100135.57;128390;1101;62779;-76
2021/05/09 05:50:16;;;;;;;2.73;1.17;;;;;;;13.05;57.89;100138.27;128395;1101;62026;-76
2021/05/09 05:52:43;;;;;;;1.63;0.90;;;;;;;13.19;58.06;100144.39;128340;1101;62380;-76
2021/05/09 05:55:10;;;;;;;1.83;0.80;;;;;;;13.30;57.85;100135.80;128412;1101;63081;-76
2021/05/09 05:57:37;;;;;;;1.90;1.10;;;;;;;13.43;57.51;100134.97;128383;1101;62782;-76
2021/05/09 06:00:04;;;;;;;1.50;0.97;;;;;;;13.57;57.54;100141.91;128394;1101;62227;-77
2021/05/09 06:02:31;;;;;;;1.90;1.10;;;;;;;13.72;56.77;100140.87;128326;1101;62764;-76
2021/05/09 06:05:01;;;;;;;1.63;0.80;;;;;;;13.85;56.13;100138.16;128325;1101;62113;-76
2021/05/09 06:07:29;;;;;;;3.23;1.10;;;;;;;14.01;55.83;100147.55;128328;1101;62847;-76
2021/05/09 06:09:55;;;;;;;1.80;0.80;;;;;;;14.13;55.00;100140.53;128374;1101;62333;-76
2021/05/09 06:12:22;;;;;;;1.10;0.70;;;;;;;14.27;55.56;100147.42;128382;1101;62096;-75
2021/05/09 06:14:49;;;;;;;2.80;1.13;;;;;;;14.40;54.38;100145.73;128408;1101;62081;-75
2021/05/09 06:17:16;;;;;;;1.93;1.00;;;;;;;14.53;54.41;100150.98;128370;1101;62153;-75
2021/05/09 06:19:42;;;;;;;1.57;1.03;;;;;;;14.65;54.23;100151.97;128393;1101;62043;-76
2021/05/09 06:22:09;;;;;;;1.10;0.70;;;;;;;14.79;54.14;100159.89;128395;1101;62426;-76
2021/05/09 06:24:36;;;;;;;1.40;0.80;;;;;;;14.89;53.57;100157.56;128436;1101;62794;-76
2021/05/09 06:27:03;;;;;;;1.77;1.10;;;;;;;15.00;53.27;100151.55;128294;1101;62197;-76
2021/05/09 06:29:30;;;;;;;1.80;0.80;;;;;;;15.12;52.86;100154.31;128452;1101;62449;-77
2021/05/09 06:31:57;;;;;;;1.50;0.70;;;;;;;15.22;52.29;100135.13;128364;1101;62374;-76
2021/05/09 06:34:24;;;;;;;2.17;1.00;;;;;;;15.31;51.94;100149.03;128390;1101;62218;-76
2021/05/09 06:36:51;;;;;;;1.20;0.67;;;;;;;15.38;51.65;100147.91;128412;1101;62232;-76
2021/05/09 06:39:25;;;;;;;3.10;0.90;;;;;;;15.49;51.52;100143.69;128381;1101;63078;-75
2021/05/09 06:41:52;;;;;;;1.67;0.90;;;;;;;15.58;51.05;100146.92;128391;1101;62163;-74
2021/05/09 06:44:19;;;;;;;1.45;0.85;;;;;;;15.65;51.77;100147.66;128400;1101;62488;-74
2021/05/09 06:46:45;;;;;;;3.03;1.50;;;;;;;15.75;51.54;100158.70;128388;1101;62099;-75
2021/05/09 06:49:14;;;;;;;3.07;0.90;;;;;;;15.86;51.21;100157.95;128334;1101;62763;-73
2021/05/09 06:51:40;;;;;;;1.47;0.80;;;;;;;15.99;51.26;100164.20;128374;1101;62237;-74
2021/05/09 06:54:07;;;;;;;2.87;1.20;;;;;;;16.14;51.32;100161.14;128427;1101;62318;-74
2021/05/09 06:56:34;;;;;;;2.33;0.90;;;;;;;16.24;50.34;100167.59;128423;1101;62205;-75
2021/05/09 06:59:01;;;;;;;2.07;1.17;;;;;;;16.37;50.13;100171.16;128133;1101;62500;-75
2021/05/09 07:01:27;;;;;;;1.93;0.80;;;;;;;16.51;49.40;100162.72;128358;1101;62822;-75
2021/05/09 07:03:54;;;;;;;1.87;0.80;;;;;;;16.63;49.29;100164.61;128375;1101;62385;-75
2021/05/09 07:06:21;;;;;;;3.03;0.90;;;;;;;16.75;49.64;100156.63;128430;1101;62967;-75
2021/05/09 07:08:48;;;;;;;2.43;1.10;;;;;;;16.88;49.02;100167.16;128398;1101;62430;-75
2021/05/09 07:11:15;;;;;;;1.17;0.70;;;;;;;16.99;48.38;100165.55;128380;1101;62288;-75
2021/05/09 07:13:42;;;;;;;2.23;0.80;;;;;;;17.06;47.98;100169.74;128397;1101;63499;-76
2021/05/09 07:16:09;;;;;;;1.67;0.70;;;;;;;17.14;48.17;100175.83;128416;1101;62189;-75
2021/05/09 07:18:36;;;;;;;2.10;0.87;;;;;;;17.24;47.93;100168.84;128362;1101;62253;-75
2021/05/09 07:21:11;;;;;;;0.97;0.60;;;;;;;17.35;47.65;100175.27;128263;1101;62493;-75
2021/05/09 07:23:44;;;;;;;2.27;1.23;;;;;;;17.46;47.84;100160.23;128408;1101;62510;-75
2021/05/09 07:26:10;;;;;;;1.53;0.70;;;;;;;17.55;46.69;100166.05;128417;1101;62146;-75
2021/05/09 07:28:38;;;;;;;2.53;0.87;;;;;;;17.63;47.08;100158.47;128078;1102;62540;-75
2021/05/09 07:31:04;;;;;;;2.90;1.40;;;;;;;17.69;46.01;100164.77;128424;1101;63045;-76
2021/05/09 07:33:31;;;;;;;1.50;0.77;;;;;;;17.72;45.91;100164.28;128363;1101;62156;-75
2021/05/09 07:35:57;;;;;;;2.03;0.90;;;;;;;17.82;46.75;100150.29;128403;1101;62070;-76
2021/05/09 07:38:24;;;;;;;1.40;0.70;;;;;;;17.93;46.33;100162.89;128390;1101;62788;-76
2021/05/09 07:40:51;;;;;;;2.87;0.93;;;;;;;18.01;45.92;100154.47;128289;1101;61922;-76
2021/05/09 07:43:18;;;;;;;1.30;0.90;;;;;;;18.08;45.79;100149.77;128391;1101;62263;-76
2021/05/09 07:45:46;;;;;;;2.00;0.80;;;;;;;18.18;46.63;100143.80;128148;1101;62010;-74
2021/05/09 07:48:12;;;;;;;1.50;0.87;;;;;;;18.29;46.79;100153.68;128314;1101;62034;-74
2021/05/09 07:50:40;;;;;;;1.73;0.90;;;;;;;18.34;46.30;100163.73;128383;1101;62868;-76
2021/05/09 07:53:08;;;;;;;2.83;0.87;;;;;;;18.43;46.00;100162.28;128365;1101;62071;-75
2021/05/09 07:55:34;;;;;;;2.07;0.83;;;;;;;18.46;44.92;100150.23;128394;1101;62602;-74
2021/05/09 07:58:17;;;;;;;3.67;1.03;;;;;;;18.52;45.72;100154.65;128405;1101;63144;-75
2021/05/09 08:00:44;;;;;;;3.50;0.93;;;;;;;18.61;46.06;100153.20;128326;1101;62272;-75
2021/05/09 08:03:12;;;;;;;1.87;0.80;;;;;;;18.75;45.66;100149.16;128336;1101;61917;-75
2021/05/09 08:05:39;;;;;;;2.07;0.93;;;;;;;18.87;45.18;100140.23;128350;1101;62271;-74
2021/05/09 08:08:07;;;;;;;2.50;1.00;;;;;;;18.91;44.92;100147.59;128325;1101;63005;-75
2021/05/09 08:10:39;;;;;;;2.97;0.90;;;;;;;19.00;45.39;100142.63;128562;1101;62124;-75
2021/05/09 08:13:08;;;;;;;1.17;0.63;;;;;;;19.10;44.67;100150.02;128589;1101;62245;-75
2021/05/09 08:15:34;;;;;;;1.40;0.60;;;;;;;19.14;44.41;100143.91;128393;1101;62191;-74
2021/05/09 08:18:02;;;;;;;1.30;0.90;;;;;;;19.21;44.62;100135.69;128308;1101;62275;-75
2021/05/09 08:20:29;;;;;;;2.83;1.37;;;;;;;19.34;44.72;100134.54;128412;1101;62140;-75
2021/05/09 08:22:56;;;;;;;1.27;0.70;;;;;;;19.43;44.60;100135.73;128420;1101;62004;-75
2021/05/09 08:25:23;;;;;;;1.57;0.80;;;;;;;19.56;44.74;100131.88;128394;1101;62155;-75
2021/05/09 08:27:51;;;;;;;1.33;0.60;;;;;;;19.69;44.50;100131.52;128415;1101;62523;-75
2021/05/09 08:30:20;;;;;;;1.93;1.00;;;;;;;19.83;43.62;100126.63;128577;1101;62192;-75
2021/05/09 08:32:47;;;;;;;1.47;0.70;;;;;;;19.93;43.60;100129.45;128428;1101;62193;-75
2021/05/09 08:35:14;;;;;;;2.27;0.83;;;;;;;20.02;44.25;100118.20;128389;1101;62193;-76
2021/05/09 08:37:42;;;;;;;1.63;0.93;;;;;;;20.13;43.92;100109.20;128432;1101;62953;-75
2021/05/09 08:40:14;;;;;;;1.63;0.70;;;;;;;20.22;43.08;100118.45;128434;1101;62222;-75
2021/05/09 08:42:42;;;;;;;2.00;0.70;;;;;;;20.38;43.72;100100.58;128454;1101;62093;-75
2021/05/09 08:45:10;;;;;;;3.87;0.90;;;;;;;20.51;43.38;100099.35;128423;1101;62057;-76
2021/05/09 08:47:41;;;;;;;1.70;0.53;;;;;;;20.63;42.59;100093.81;128372;1101;62146;-76
2021/05/09 08:50:19;;;;;;;1.50;0.67;;;;;;;20.69;42.30;100090.09;128422;1102;62441;-76
2021/05/09 08:52:48;;;;;;;2.03;0.60;;;;;;;20.76;42.40;100096.91;128355;1101;64269;-76
2021/05/09 08:55:26;;;;;;;1.93;0.60;;;;;;;20.80;42.37;100093.69;128231;1102;62661;-76
2021/05/09 08:57:56;;;;;;;1.50;0.80;;;;;;;20.89;41.79;100095.66;128420;1101;62065;-75
2021/05/09 09:00:25;;;;;;;1.45;0.75;;;;;;;20.92;41.48;100091.63;128401;1101;62073;-75
2021/05/09 09:02:58;;;;;;;2.77;0.90;;;;;;;20.97;41.74;100092.49;128441;1101;62478;-76
2021/05/09 09:05:33;;;;;;;7.33;0.80;;;;;;;21.11;42.02;100078.55;128411;1101;62269;-75
2021/05/09 09:07:59;;;;;;;1.20;0.80;;;;;;;21.26;42.17;100077.83;128438;1101;62430;-76
2021/05/09 09:10:35;;;;;;;2.37;1.00;;;;;;;21.46;42.78;100071.75;128405;1101;62566;-76
2021/05/09 09:13:03;;;;;;;1.43;0.70;;;;;;;21.56;41.09;100066.41;128184;1101;62646;-76
2021/05/09 09:16:03;;;;;;;1.50;0.60;;;;;;;21.66;41.00;100060.25;128148;1102;62557;-75
2021/05/09 09:18:37;;;;;;;2.00;0.80;;;;;;;21.72;40.88;100061.91;128452;1101;62136;-76
2021/05/09 09:21:27;;;;;;;1.90;0.60;;;;;;;21.77;40.99;100059.20;128401;1101;62103;-75
2021/05/09 09:24:07;;;;;;;1.83;0.63;;;;;;;21.89;41.19;100054.39;128400;1101;62319;-76
2021/05/09 09:26:49;;;;;;;1.43;0.60;;;;;;;22.07;40.91;100060.38;128439;1101;62075;-76
2021/05/09 09:29:20;;;;;;;1.57;0.90;;;;;;;22.24;41.02;100050.16;128387;1101;62100;-76
2021/05/09 09:31:51;;;;;;;1.20;0.60;;;;;;;22.44;40.95;100043.98;128494;1101;62861;-76
2021/05/09 09:34:18;;;;;;;1.10;0.70;;;;;;;22.60;40.46;100045.58;128402;1101;62081;-76
2021/05/09 09:36:45;;;;;;;1.10;0.60;;;;;;;22.76;40.37;100041.00;128488;1101;62890;-76
2021/05/09 09:39:12;;;;;;;3.40;1.10;;;;;;;22.85;39.17;100037.75;128424;1101;62332;-75
2021/05/09 09:41:48;;;;;;;2.70;0.60;;;;;;;;;;128436;1101;62209;-75
2021/05/09 09:44:17;;;;;;;2.00;1.13;;;;;;;23.04;39.25;100040.72;128389;1101;62241;-74
2021/05/09 09:46:54;;;;;;;1.00;0.53;;;;;;;23.06;38.14;100022.30;128412;1101;62159;-75
2021/05/09 09:49:31;;;;;;;3.10;0.83;;;;;;;23.19;38.53;100016.33;128421;1101;62555;-75
2021/05/09 09:52:06;;;;;;;2.87;0.97;;;;;;;23.23;38.51;100014.69;128126;1101;62343;-75
2021/05/09 09:54:42;;;;;;;2.40;0.67;;;;;;;23.31;37.77;100007.88;128433;1101;62181;-75
2021/05/09 09:57:31;;;;;;;1.90;0.70;;;;;;;23.38;37.93;100025.45;128427;1101;61962;-75
2021/05/09 10:00:08;;;;;;;1.17;0.83;;;;;;;23.38;38.56;100009.22;128369;1101;62001;-75
2021/05/09 10:02:35;;;;;;;1.20;0.60;;;;;;;23.55;39.77;100008.88;128367;1101;62184;-74
2021/05/09 10:05:03;;;;;;;1.43;0.60;;;;;;;23.68;37.88;100002.04;128434;1101;62159;-75
2021/05/09 10:07:30;;;;;;;1.97;0.90;;;;;;;23.70;37.91;100002.56;128120;1102;62065;-75
2021/05/09 10:09:57;;;;;;;3.00;0.90;;;;;;;23.72;36.67;100005.81;128398;1101;62985;-75
2021/05/09 10:12:24;;;;;;;1.87;0.80;;;;;;;23.74;37.45;100000.92;128369;1101;62334;-75
2021/05/09 10:14:55;;;;;;;1.30;0.70;;;;;;;23.87;36.78;99999.52;128422;1101;62162;-75
2021/05/09 10:17:24;;;;;;;1.20;0.70;;;;;;;23.96;36.28;100002.45;128370;1101;62103;-75
2021/05/09 10:19:52;;;;;;;1.73;0.87;;;;;;;23.94;35.31;99997.30;128455;1101;62243;-75
2021/05/09 10:22:34;;;;;;;2.87;0.60;;;;;;;23.93;35.89;99998.41;128395;1101;62945;-75
2021/05/09 10:25:02;;;;;;;1.43;0.63;;;;;;;23.99;34.82;99991.86;128437;1101;62329;-75
2021/05/09 10:27:40;;;;;;;2.90;0.60;;;;;;;23.99;35.23;99986.45;128388;1101;63148;-75
2021/05/09 10:30:08;;;;;;;0.63;0.40;;;;;;;24.09;36.97;99980.13;128416;1101;62105;-75
2021/05/09 10:32:34;;;;;;;2.40;0.73;;;;;;;24.28;37.66;99972.13;128443;1101;62271;-75
2021/05/09 10:35:06;;;;;;;2.50;0.60;;;;;;;24.51;37.59;99973.31;128425;1101;62013;-75
2021/05/09 10:37:42;;;;;;;1.30;0.70;;;;;;;24.74;36.63;99971.73;128404;1101;62066;-75
2021/05/09 10:40:23;;;;;;;1.10;0.50;;;;;;;24.92;36.33;99966.66;128420;1101;62256;-75
2021/05/09 10:43:02;;;;;;;1.00;0.70;;;;;;;25.05;35.77;99965.95;128396;1101;62180;-75
2021/05/09 10:45:30;;;;;;;1.63;0.77;;;;;;;25.18;35.08;99962.56;128389;1101;62294;-75
2021/05/09 10:48:15;;;;;;;2.57;0.97;;;;;;;25.31;35.35;99965.67;128487;1101;62004;-75
2021/05/09 10:50:46;;;;;;;1.23;0.70;;;;;;;25.44;35.87;99954.13;128391;1101;62451;-75
2021/05/09 10:53:34;;;;;;;2.20;0.90;;;;;;;25.55;34.64;99944.72;128411;1101;62616;-75
2021/05/09 10:56:04;;;;;;;3.37;0.80;;;;;;;25.54;34.05;99943.09;128382;1101;62175;-75
2021/05/09 10:58:39;;;;;;;2.60;0.90;;;;;;;25.58;34.13;99943.33;128409;1101;62082;-75
2021/05/09 11:01:09;;;;;;;2.17;0.87;;;;;;;25.57;33.43;99934.38;128378;1101;63450;-75
2021/05/09 11:03:42;;;;;;;2.10;0.80;;;;;;;25.60;34.35;99938.41;128390;1101;62955;-75
2021/05/09 11:06:17;;;;;;;2.73;1.37;;;;;;;25.61;34.03;99927.26;128407;1101;62241;-75
2021/05/09 11:08:47;;;;;;;2.83;1.27;;;;;;;25.69;33.31;99930.40;128418;1101;62252;-75
2021/05/09 11:11:26;;;;;;;3.27;1.00;;;;;;;25.72;34.01;99927.11;128440;1101;62282;-75
2021/05/09 11:13:59;;;;;;;1.93;0.90;;;;;;;25.83;35.53;99918.49;128429;1101;62088;-75
2021/05/09 11:16:31;;;;;;;2.40;1.57;;;;;;;25.98;35.29;99920.19;128465;1101;62105;-75
2021/05/09 11:19:06;;;;;;;2.38;0.80;;;;;;;26.05;35.13;99908.94;128428;1101;62190;-75
2021/05/09 11:21:59;;;;;;;2.30;0.70;;;;;;;26.11;34.96;99901.51;128418;1101;62388;-75
2021/05/09 11:24:31;;;;;;;2.10;1.00;;;;;;;26.22;35.50;99902.94;128359;1101;63071;-74
2021/05/09 11:27:09;;;;;;;1.80;0.90;;;;;;;26.33;34.66;99896.23;128451;1101;62948;-75